Time;durP1;ratioP1;P1;durP2;ratioP2;P2;SDS_P1;SDS_P2;PMS_P1;PMS_P2;Temp;Humidity;BMP_temperature;BMP_pressure;BME280_temperature;BME280_humidity;BME280_pressure;Samples;Min_cycle;Max_cycle;Signal;HPM_P1;HPM_P2
2021/05/15 00:00:41;;;;;;;13.45;12.02;;;8.00;99.90;;;;;;5057694;28;20037;-67
2021/05/15 00:03:06;;;;;;;13.18;10.50;;;8.00;99.90;;;;;;5053527;28;20125;-67
2021/05/15 00:05:32;;;;;;;14.20;11.93;;;8.00;99.90;;;;;;5057589;28;20607;-67
2021/05/15 00:08:02;;;;;;;16.67;12.48;;;8.00;99.90;;;;;;5058841;28;20086;-67
2021/05/15 00:10:30;;;;;;;15.43;12.48;;;8.00;99.90;;;;;;5056252;28;20552;-67
2021/05/15 00:12:56;;;;;;;15.80;13.57;;;8.00;99.90;;;;;;5060969;28;20033;-67
2021/05/15 00:15:21;;;;;;;15.68;12.98;;;7.90;99.90;;;;;;5055481;28;20482;-67
2021/05/15 00:17:47;;;;;;;14.10;12.40;;;7.80;99.90;;;;;;5057702;28;20054;-67
2021/05/15 00:20:15;;;;;;;13.57;11.88;;;7.80;99.90;;;;;;5058284;28;20040;-67
2021/05/15 00:22:42;;;;;;;14.18;11.85;;;7.80;99.90;;;;;;5056146;28;20145;-67
2021/05/15 00:25:09;;;;;;;13.95;11.50;;;7.80;99.90;;;;;;5057209;28;20116;-67
2021/05/15 00:27:36;;;;;;;16.45;13.40;;;7.80;99.90;;;;;;5057905;28;20129;-67
2021/05/15 00:30:04;;;;;;;16.20;14.23;;;7.80;99.90;;;;;;5057010;28;20060;-67
2021/05/15 00:32:30;;;;;;;15.35;13.65;;;7.80;99.90;;;;;;5062120;28;20036;-67
2021/05/15 00:34:56;;;;;;;16.00;12.93;;;7.70;99.90;;;;;;5056274;28;20047;-67
2021/05/15 00:37:22;;;;;;;9.77;8.77;;;7.70;99.90;;;;;;5060041;28;20126;-67
2021/05/15 00:39:47;;;;;;;15.02;11.55;;;7.70;99.90;;;;;;5061647;28;20071;-67
2021/05/15 00:42:13;;;;;;;13.05;11.48;;;7.70;99.90;;;;;;5057268;28;20131;-67
2021/05/15 00:44:47;;;;;;;15.40;13.18;;;7.70;99.90;;;;;;5055098;28;20525;-67
2021/05/15 00:47:18;;;;;;;15.75;12.98;;;7.70;99.90;;;;;;5056075;28;20051;-67
2021/05/15 00:49:45;;;;;;;14.90;12.70;;;7.80;99.90;;;;;;5053007;28;20524;-67
2021/05/15 00:52:12;;;;;;;14.27;11.82;;;7.80;99.90;;;;;;5056578;28;20044;-67
2021/05/15 00:54:40;;;;;;;20.13;16.52;;;7.70;99.90;;;;;;5056088;28;20041;-67
2021/05/15 00:57:08;;;;;;;15.00;13.40;;;7.80;99.90;;;;;;5058704;28;21023;-67
2021/05/15 00:59:35;;;;;;;15.23;12.85;;;7.80;99.90;;;;;;5058915;28;20041;-67
2021/05/15 01:02:02;;;;;;;16.70;13.00;;;7.70;99.90;;;;;;5056174;28;20117;-67
2021/05/15 01:04:28;;;;;;;15.27;13.77;;;7.70;99.90;;;;;;5059450;28;20033;-67
2021/05/15 01:06:54;;;;;;;14.68;13.07;;;7.70;99.90;;;;;;5054011;28;20047;-67
2021/05/15 01:09:20;;;;;;;15.13;13.00;;;7.70;99.90;;;;;;5057356;28;20506;-67
2021/05/15 01:11:46;;;;;;;21.77;15.55;;;7.70;99.90;;;;;;5055476;28;20060;-67
2021/05/15 01:14:12;;;;;;;19.63;15.27;;;7.80;99.90;;;;;;5058731;28;20044;-67
2021/05/15 01:16:38;;;;;;;16.40;14.75;;;7.80;99.90;;;;;;5056210;28;20468;-67
2021/05/15 01:19:04;;;;;;;16.30;13.77;;;7.70;99.90;;;;;;5057406;28;20739;-66
2021/05/15 01:21:34;;;;;;;16.65;13.88;;;7.70;99.90;;;;;;5057033;28;20041;-67
2021/05/15 01:24:00;;;;;;;15.75;13.13;;;7.70;99.90;;;;;;5056276;28;20112;-67
2021/05/15 01:26:27;;;;;;;12.75;11.50;;;7.70;99.90;;;;;;5056206;28;20044;-67
2021/05/15 01:29:00;;;;;;;14.15;11.48;;;7.80;99.90;;;;;;5056096;28;20045;-67
2021/05/15 01:31:27;;;;;;;17.92;12.88;;;7.60;99.90;;;;;;5058447;28;20087;-67
2021/05/15 01:33:53;;;;;;;16.17;12.80;;;7.60;99.90;;;;;;5055081;28;20033;-67
2021/05/15 01:36:20;;;;;;;15.80;12.10;;;7.60;99.90;;;;;;5057126;28;20036;-67
2021/05/15 01:38:46;;;;;;;14.70;13.07;;;7.60;99.90;;;;;;5053619;28;20136;-67
2021/05/15 01:41:14;;;;;;;14.48;13.02;;;7.50;99.90;;;;;;5057086;28;20341;-66
2021/05/15 01:43:40;;;;;;;16.05;13.40;;;7.40;99.90;;;;;;5058471;28;20036;-66
2021/05/15 01:46:08;;;;;;;16.52;13.98;;;7.40;99.90;;;;;;5056615;28;20032;-67
2021/05/15 01:48:34;;;;;;;15.38;13.82;;;7.40;99.90;;;;;;5056645;28;20052;-66
2021/05/15 01:51:13;;;;;;;15.63;14.00;;;7.40;99.90;;;;;;5055134;28;20033;-66
2021/05/15 01:53:41;;;;;;;16.70;13.65;;;7.40;99.90;;;;;;5056972;28;20391;-67
2021/05/15 01:56:12;;;;;;;16.45;14.70;;;7.40;99.90;;;;;;5056355;28;20110;-67
2021/05/15 01:58:39;;;;;;;16.42;13.88;;;7.40;99.90;;;;;;5054791;28;20401;-66
2021/05/15 02:01:06;;;;;;;18.92;15.48;;;7.40;99.90;;;;;;5058455;28;20032;-66
2021/05/15 02:03:33;;;;;;;18.80;16.33;;;7.40;99.90;;;;;;5056784;28;20072;-66
2021/05/15 02:05:59;;;;;;;19.50;16.55;;;7.40;99.90;;;;;;5057179;28;20060;-66
2021/05/15 02:08:25;;;;;;;22.25;17.27;;;7.40;99.90;;;;;;5060208;28;20130;-66
2021/05/15 02:10:52;;;;;;;33.33;19.02;;;7.40;99.90;;;;;;5058806;28;20406;-66
2021/05/15 02:13:19;;;;;;;20.52;16.25;;;7.40;99.90;;;;;;5058411;28;20047;-67
2021/05/15 02:15:47;;;;;;;20.63;16.00;;;7.30;99.90;;;;;;5062859;28;20051;-67
2021/05/15 02:18:14;;;;;;;22.15;16.27;;;7.30;99.90;;;;;;5062625;28;20087;-67
2021/05/15 02:20:41;;;;;;;22.90;16.75;;;7.40;99.90;;;;;;5061102;28;20418;-66
2021/05/15 02:23:07;;;;;;;19.08;15.88;;;7.40;99.90;;;;;;5061132;28;20063;-66
2021/05/15 02:25:33;;;;;;;23.42;17.48;;;7.40;99.90;;;;;;5059435;28;20474;-67
2021/05/15 02:27:59;;;;;;;23.27;18.25;;;7.50;99.90;;;;;;5057421;28;20118;-66
2021/05/15 02:30:26;;;;;;;18.98;16.15;;;7.50;99.90;;;;;;5060980;28;20048;-67
2021/05/15 02:32:51;;;;;;;23.95;18.20;;;7.60;99.90;;;;;;5069323;28;20530;-67
2021/05/15 02:35:18;;;;;;;24.58;17.83;;;7.60;99.90;;;;;;5064816;28;20037;-66
2021/05/15 02:37:45;;;;;;;19.42;16.23;;;7.60;99.90;;;;;;5065334;28;20129;-67
2021/05/15 02:40:12;;;;;;;21.70;16.15;;;7.60;99.90;;;;;;5068732;28;20482;-66
2021/05/15 02:42:38;;;;;;;20.38;16.35;;;7.60;99.90;;;;;;5066989;28;20036;-67
2021/05/15 02:45:06;;;;;;;18.50;16.42;;;7.60;99.90;;;;;;5066270;28;20111;-66
2021/05/15 02:47:32;;;;;;;17.75;15.90;;;7.70;99.90;;;;;;5068807;28;20085;-66
2021/05/15 02:49:59;;;;;;;21.27;17.17;;;7.60;99.90;;;;;;5066377;28;20421;-67
2021/05/15 02:52:25;;;;;;;22.50;18.30;;;7.60;99.90;;;;;;5066898;28;20044;-67
2021/05/15 02:54:51;;;;;;;20.90;17.13;;;7.50;99.90;;;;;;5069955;28;20037;-67
2021/05/15 02:57:16;;;;;;;23.13;18.08;;;7.50;99.90;;;;;;5068725;28;20040;-66
2021/05/15 02:59:42;;;;;;;24.77;17.58;;;7.50;99.90;;;;;;5068566;28;20112;-66
2021/05/15 03:02:08;;;;;;;23.00;17.70;;;7.60;99.90;;;;;;5067578;28;20068;-66
2021/05/15 03:04:33;;;;;;;25.15;19.58;;;7.50;99.90;;;;;;5065980;28;20036;-67
2021/05/15 03:07:00;;;;;;;22.30;17.70;;;7.50;99.90;;;;;;5065214;28;20029;-67
2021/05/15 03:09:25;;;;;;;21.88;17.52;;;7.50;99.90;;;;;;5063697;28;20045;-67
2021/05/15 03:11:51;;;;;;;26.08;18.45;;;7.50;99.90;;;;;;5065884;28;20067;-67
2021/05/15 03:14:18;;;;;;;21.67;18.42;;;7.50;99.90;;;;;;5065510;28;20044;-67
2021/05/15 03:16:44;;;;;;;25.67;17.67;;;7.60;99.90;;;;;;5061361;28;20064;-67
2021/05/15 03:19:10;;;;;;;20.60;16.42;;;7.60;99.90;;;;;;5057586;28;20049;-67
2021/05/15 03:21:36;;;;;;;19.77;16.30;;;7.60;99.90;;;;;;5058958;28;20056;-67
2021/05/15 03:24:02;;;;;;;21.30;17.05;;;7.60;99.90;;;;;;5059255;28;20474;-66
2021/05/15 03:26:28;;;;;;;20.95;17.20;;;7.70;99.90;;;;;;5060548;28;20569;-67
2021/05/15 03:28:53;;;;;;;16.75;14.90;;;7.70;99.90;;;;;;5059721;28;20036;-66
2021/05/15 03:31:19;;;;;;;21.98;16.38;;;7.70;99.90;;;;;;5058942;28;20033;-67
2021/05/15 03:33:45;;;;;;;18.35;15.20;;;7.80;99.90;;;;;;5058263;28;20534;-67
2021/05/15 03:36:11;;;;;;;21.40;15.00;;;7.80;99.90;;;;;;5057444;28;20033;-67
2021/05/15 03:38:36;;;;;;;23.05;17.60;;;7.80;99.90;;;;;;5059130;28;20119;-67
2021/05/15 03:41:02;;;;;;;18.55;15.43;;;7.80;99.90;;;;;;5056946;28;20036;-67
2021/05/15 03:43:28;;;;;;;19.63;16.85;;;7.90;99.90;;;;;;5060917;28;20391;-67
2021/05/15 03:45:55;;;;;;;17.38;14.48;;;7.90;99.90;;;;;;5057647;28;20166;-67
2021/05/15 03:48:21;;;;;;;23.15;16.92;;;8.00;99.90;;;;;;5056980;28;20048;-66
2021/05/15 03:50:48;;;;;;;21.45;15.20;;;8.00;99.90;;;;;;5061178;28;20408;-67
2021/05/15 03:53:13;;;;;;;17.20;15.40;;;7.90;99.90;;;;;;5057420;28;20040;-66
2021/05/15 03:55:45;;;;;;;24.35;16.20;;;7.90;99.90;;;;;;5056253;28;20041;-67
2021/05/15 03:58:13;;;;;;;17.73;15.10;;;7.90;99.90;;;;;;5061572;28;20051;-67
2021/05/15 04:00:38;;;;;;;21.02;16.20;;;8.00;99.90;;;;;;5060172;28;20098;-67
2021/05/15 04:03:04;;;;;;;23.90;15.43;;;8.00;99.90;;;;;;5057460;28;20037;-67
2021/05/15 04:05:30;;;;;;;21.88;15.38;;;8.00;99.90;;;;;;5059732;28;20044;-67
2021/05/15 04:07:56;;;;;;;17.98;15.57;;;8.00;99.90;;;;;;5059042;28;20157;-67
2021/05/15 04:10:22;;;;;;;19.40;14.48;;;8.10;99.90;;;;;;5059588;28;20044;-67
2021/05/15 04:18:28;;;;;;;22.48;15.23;;;8.10;99.90;;;;;;5037042;28;20053;-66
2021/05/15 04:20:55;;;;;;;16.48;14.48;;;8.20;99.90;;;;;;5055110;28;20045;-67
2021/05/15 04:23:21;;;;;;;21.45;14.88;;;8.10;99.90;;;;;;5057426;28;20037;-67
2021/05/15 04:25:47;;;;;;;18.27;14.00;;;8.10;99.90;;;;;;5057739;28;20041;-67
2021/05/15 04:28:13;;;;;;;23.60;16.02;;;8.10;99.90;;;;;;5054886;28;20040;-67
2021/05/15 04:30:39;;;;;;;17.08;15.38;;;8.20;99.90;;;;;;5055213;28;20045;-67
2021/05/15 04:33:05;;;;;;;17.80;14.95;;;8.20;99.90;;;;;;5056808;28;20399;-67
2021/05/15 04:35:32;;;;;;;21.70;15.60;;;8.20;99.90;;;;;;5057229;28;20402;-67
2021/05/15 04:38:00;;;;;;;20.25;16.00;;;8.20;99.90;;;;;;5056233;28;20484;-67
2021/05/15 04:40:26;;;;;;;19.63;15.18;;;8.20;99.90;;;;;;5056243;28;20040;-67
2021/05/15 04:42:51;;;;;;;20.20;14.65;;;8.20;99.90;;;;;;5056243;28;20052;-67
2021/05/15 04:45:17;;;;;;;23.55;14.65;;;8.20;99.90;;;;;;5059853;28;20047;-67
2021/05/15 04:47:43;;;;;;;18.27;15.20;;;8.20;99.90;;;;;;5054531;28;20498;-67
2021/05/15 04:50:11;;;;;;;21.92;16.77;;;8.20;99.90;;;;;;5053968;28;20044;-67
2021/05/15 04:52:37;;;;;;;26.63;15.95;;;8.30;99.90;;;;;;5056803;28;20047;-67
2021/05/15 04:55:04;;;;;;;19.60;15.45;;;8.30;99.90;;;;;;5057468;28;20029;-67
2021/05/15 04:57:30;;;;;;;20.98;16.02;;;8.30;99.90;;;;;;5059023;28;20656;-67
2021/05/15 04:59:56;;;;;;;22.60;16.35;;;8.40;99.90;;;;;;5058865;28;20201;-67
2021/05/15 05:02:21;;;;;;;21.45;15.63;;;8.30;99.90;;;;;;5057294;28;20164;-67
2021/05/15 05:04:47;;;;;;;18.67;15.23;;;8.30;99.90;;;;;;5057415;28;20037;-67
2021/05/15 05:07:13;;;;;;;22.45;16.65;;;8.40;99.90;;;;;;5056107;28;20051;-67
2021/05/15 05:09:39;;;;;;;20.45;15.55;;;8.40;99.90;;;;;;5058677;28;20044;-67
2021/05/15 05:12:05;;;;;;;20.95;16.45;;;8.40;99.90;;;;;;5058060;28;20044;-67
2021/05/15 05:14:31;;;;;;;24.15;16.75;;;8.40;99.90;;;;;;5057224;28;20044;-66
2021/05/15 05:16:57;;;;;;;21.10;15.63;;;8.40;99.90;;;;;;5055790;28;20102;-67
2021/05/15 05:19:23;;;;;;;24.92;15.82;;;8.40;99.90;;;;;;5056861;28;21479;-67
2021/05/15 05:21:50;;;;;;;21.55;15.93;;;8.00;99.90;;;;;;5055513;28;20041;-67
2021/05/15 05:24:16;;;;;;;20.55;17.23;;;8.50;99.90;;;;;;5057546;28;20094;-67
2021/05/15 05:26:41;;;;;;;21.70;16.25;;;8.50;99.90;;;;;;5056226;28;20032;-67
2021/05/15 05:29:08;;;;;;;22.17;17.48;;;8.50;99.90;;;;;;5057291;28;20112;-67
2021/05/15 05:31:43;;;;;;;25.02;16.88;;;8.50;99.90;;;;;;5058421;28;20039;-67
2021/05/15 05:34:09;;;;;;;23.38;16.98;;;8.60;99.90;;;;;;5054407;28;20044;-67
2021/05/15 05:36:36;;;;;;;33.83;18.65;;;8.60;99.90;;;;;;5057100;28;20041;-67
2021/05/15 05:39:08;;;;;;;24.50;17.98;;;8.60;99.90;;;;;;5055846;28;20048;-67
2021/05/15 05:41:33;;;;;;;22.30;17.17;;;8.60;99.90;;;;;;5054419;28;20028;-66
2021/05/15 05:43:59;;;;;;;24.00;17.13;;;8.60;99.90;;;;;;5055537;28;20047;-67
2021/05/15 05:46:25;;;;;;;22.17;17.60;;;8.60;99.90;;;;;;5057900;28;20130;-67
2021/05/15 05:48:50;;;;;;;23.63;18.90;;;8.60;99.90;;;;;;5056353;28;20094;-67
2021/05/15 05:51:17;;;;;;;23.92;16.95;;;8.60;99.90;;;;;;5057510;28;20037;-67
2021/05/15 05:53:42;;;;;;;23.70;17.13;;;8.60;99.90;;;;;;5057732;28;20147;-67
2021/05/15 05:56:08;;;;;;;27.52;18.45;;;8.70;99.90;;;;;;5056630;28;20120;-67
2021/05/15 05:58:34;;;;;;;25.63;18.13;;;8.70;99.90;;;;;;5055723;28;20040;-67
2021/05/15 06:01:00;;;;;;;23.80;18.80;;;8.70;99.90;;;;;;5056758;28;20036;-67
2021/05/15 06:03:27;;;;;;;23.60;17.92;;;8.70;99.90;;;;;;5055714;28;20126;-67
2021/05/15 06:05:53;;;;;;;24.98;18.35;;;8.70;99.90;;;;;;5054276;28;20374;-67
2021/05/15 06:08:19;;;;;;;23.35;17.88;;;8.70;99.90;;;;;;5052962;28;20041;-67
2021/05/15 06:10:47;;;;;;;22.88;17.75;;;8.70;99.90;;;;;;5054803;28;20571;-67
2021/05/15 06:13:18;;;;;;;23.33;18.05;;;8.80;99.90;;;;;;5056240;28;20036;-66
2021/05/15 06:15:44;;;;;;;24.13;17.88;;;8.80;99.90;;;;;;5055329;28;20409;-66
2021/05/15 06:18:10;;;;;;;22.15;17.15;;;8.80;99.90;;;;;;5057973;28;20106;-67
2021/05/15 06:20:36;;;;;;;28.08;16.63;;;8.80;99.90;;;;;;5055606;28;20036;-67
2021/05/15 06:23:02;;;;;;;24.40;16.05;;;8.90;99.90;;;;;;5054680;28;20394;-67
2021/05/15 06:25:28;;;;;;;22.20;17.17;;;9.00;99.90;;;;;;5055520;28;20033;-67
2021/05/15 06:27:54;;;;;;;24.48;16.80;;;9.00;99.90;;;;;;5058376;28;20621;-67
2021/05/15 06:30:20;;;;;;;25.10;16.67;;;9.00;99.90;;;;;;5054361;28;20098;-67
2021/05/15 06:32:46;;;;;;;23.02;16.88;;;9.00;99.90;;;;;;5055951;28;20494;-67
2021/05/15 06:35:12;;;;;;;23.90;16.33;;;9.10;99.90;;;;;;5060486;28;20036;-67
2021/05/15 06:37:38;;;;;;;26.23;18.60;;;9.20;99.90;;;;;;5060727;28;20041;-67
2021/05/15 06:40:05;;;;;;;23.20;16.50;;;9.20;99.90;;;;;;5067997;28;20056;-66
2021/05/15 06:42:31;;;;;;;22.58;17.35;;;9.30;99.90;;;;;;5061443;28;20710;-66
2021/05/15 06:44:57;;;;;;;21.25;15.77;;;9.30;99.90;;;;;;5062397;28;20032;-67
2021/05/15 06:47:23;;;;;;;21.15;17.05;;;9.40;99.90;;;;;;5056989;28;20037;-67
2021/05/15 06:49:49;;;;;;;24.77;16.80;;;9.50;99.90;;;;;;5059621;28;20155;-67
2021/05/15 06:52:16;;;;;;;27.05;16.30;;;9.50;99.90;;;;;;5066983;28;20043;-67
2021/05/15 06:54:42;;;;;;;20.98;16.08;;;9.50;99.90;;;;;;5061956;28;20123;-67
2021/05/15 06:57:08;;;;;;;22.77;16.05;;;9.50;99.90;;;;;;5061694;28;20123;-66
2021/05/15 06:59:34;;;;;;;25.23;17.17;;;9.60;99.90;;;;;;5062232;28;20033;-67
2021/05/15 07:02:00;;;;;;;21.58;16.00;;;9.60;99.90;;;;;;5064208;28;20055;-67
2021/05/15 07:04:26;;;;;;;20.27;16.20;;;9.70;99.90;;;;;;5064148;28;20402;-67
2021/05/15 07:06:52;;;;;;;19.60;16.13;;;9.70;99.90;;;;;;5061921;28;20029;-67
2021/05/15 07:09:18;;;;;;;20.63;15.40;;;9.70;99.90;;;;;;5061040;28;20099;-67
2021/05/15 07:11:44;;;;;;;23.85;16.95;;;9.70;99.90;;;;;;5058324;28;20711;-67
2021/05/15 07:14:09;;;;;;;23.17;15.68;;;9.70;99.90;;;;;;5059633;28;20111;-67
2021/05/15 07:16:35;;;;;;;20.52;15.73;;;9.80;99.90;;;;;;5058945;28;20108;-67
2021/05/15 07:19:01;;;;;;;21.08;15.30;;;9.90;99.90;;;;;;5059714;28;20476;-67
2021/05/15 07:21:27;;;;;;;26.15;15.82;;;10.00;99.90;;;;;;5058440;28;20048;-67
2021/05/15 07:23:53;;;;;;;19.75;17.73;;;10.00;99.90;;;;;;5059040;28;20989;-67
2021/05/15 07:26:18;;;;;;;19.95;15.70;;;10.10;99.90;;;;;;5057977;28;20436;-67
2021/05/15 07:28:44;;;;;;;20.65;14.77;;;10.20;99.90;;;;;;5061484;28;20043;-67
2021/05/15 07:31:11;;;;;;;20.20;14.02;;;10.30;99.90;;;;;;5066872;28;20083;-68
2021/05/15 07:33:37;;;;;;;20.42;15.68;;;10.40;99.90;;;;;;5062960;28;20071;-68
2021/05/15 07:36:03;;;;;;;19.00;13.77;;;10.40;99.90;;;;;;5056062;28;20048;-67
2021/05/15 07:38:29;;;;;;;20.48;15.63;;;10.50;99.90;;;;;;5057309;28;20045;-67
2021/05/15 07:40:56;;;;;;;20.55;15.25;;;10.50;99.90;;;;;;5059640;28;20474;-67
2021/05/15 07:43:26;;;;;;;22.13;15.88;;;10.60;99.90;;;;;;5060633;28;20041;-67
2021/05/15 07:45:56;;;;;;;20.30;15.43;;;10.60;99.90;;;;;;5061724;28;20041;-67
2021/05/15 07:48:37;;;;;;;19.40;15.27;;;10.70;99.90;;;;;;5064774;28;20041;-67
2021/05/15 07:51:04;;;;;;;20.77;15.52;;;10.70;99.90;;;;;;5061914;28;20589;-67
2021/05/15 07:53:29;;;;;;;18.42;14.50;;;10.70;99.90;;;;;;5061446;28;20045;-67
2021/05/15 07:55:55;;;;;;;23.30;15.38;;;10.70;99.90;;;;;;5066649;28;20489;-67
2021/05/15 07:58:21;;;;;;;18.75;14.55;;;10.80;99.90;;;;;;5063235;28;20044;-67
2021/05/15 08:00:47;;;;;;;21.08;15.80;;;10.70;99.90;;;;;;5060821;28;20546;-67
2021/05/15 08:03:13;;;;;;;23.52;15.25;;;10.70;99.50;;;;;;5059550;28;20402;-67
2021/05/15 08:05:38;;;;;;;30.92;16.75;;;10.80;99.90;;;;;;5058746;28;20033;-67
2021/05/15 08:08:06;;;;;;;20.02;15.80;;;10.80;99.90;;;;;;5062080;28;20037;-67
2021/05/15 08:10:32;;;;;;;22.77;16.00;;;10.80;99.90;;;;;;5063411;28;20045;-67
2021/05/15 08:12:58;;;;;;;23.33;16.02;;;10.80;99.80;;;;;;5066782;28;20065;-67
2021/05/15 08:15:25;;;;;;;28.55;18.70;;;10.80;99.90;;;;;;5063453;28;20040;-67
2021/05/15 08:17:51;;;;;;;30.83;21.00;;;10.90;99.90;;;;;;5062776;28;20048;-68
2021/05/15 08:20:19;;;;;;;34.08;19.42;;;11.00;99.90;;;;;;5060370;28;20094;-67
2021/05/15 08:22:45;;;;;;;32.85;21.20;;;11.00;99.90;;;;;;5059925;28;20044;-67
2021/05/15 08:25:12;;;;;;;41.38;22.20;;;11.00;99.90;;;;;;5062288;28;20445;-67
2021/05/15 08:27:40;;;;;;;37.08;20.48;;;10.90;99.90;;;;;;5061651;28;20041;-67
2021/05/15 08:30:14;;;;;;;29.13;20.85;;;11.00;99.90;;;;;;5062628;28;20067;-67
2021/05/15 08:32:40;;;;;;;36.05;21.27;;;11.00;99.90;;;;;;5060209;28;20036;-67
2021/05/15 08:35:06;;;;;;;37.83;21.45;;;10.90;99.90;;;;;;5059091;28;20467;-67
2021/05/15 08:37:32;;;;;;;32.72;21.13;;;10.90;99.90;;;;;;5061703;28;20098;-67
2021/05/15 08:39:58;;;;;;;30.02;21.23;;;10.90;99.90;;;;;;5063164;28;20628;-67
2021/05/15 08:42:25;;;;;;;43.67;26.40;;;11.00;99.90;;;;;;5060419;28;20041;-67
2021/05/15 08:44:51;;;;;;;33.20;25.02;;;11.00;99.90;;;;;;5063381;28;20040;-67
2021/05/15 08:47:18;;;;;;;33.63;23.70;;;11.10;99.90;;;;;;5061531;28;20047;-67
2021/05/15 08:49:46;;;;;;;35.40;24.98;;;11.10;99.90;;;;;;5062073;28;20036;-67
2021/05/15 08:52:13;;;;;;;31.98;22.48;;;11.10;99.90;;;;;;5059628;28;20048;-67
2021/05/15 08:54:39;;;;;;;31.42;23.60;;;11.20;99.90;;;;;;5060720;28;20041;-67
2021/05/15 08:57:05;;;;;;;44.08;25.52;;;11.10;99.90;;;;;;5060916;28;20047;-67
2021/05/15 08:59:31;;;;;;;32.97;23.75;;;11.20;99.90;;;;;;5059614;28;20044;-67
2021/05/15 09:01:57;;;;;;;31.85;21.95;;;11.10;99.90;;;;;;5061407;28;20036;-67
2021/05/15 09:04:24;;;;;;;34.28;22.75;;;11.10;99.90;;;;;;5059609;28;20040;-67
2021/05/15 09:06:50;;;;;;;37.35;25.38;;;11.20;99.90;;;;;;5060346;28;20043;-67
2021/05/15 09:09:17;;;;;;;32.13;23.67;;;11.20;99.90;;;;;;5058662;28;20040;-67
2021/05/15 09:11:43;;;;;;;34.45;24.25;;;11.30;99.90;;;;;;5060555;28;20051;-67
2021/05/15 09:14:17;;;;;;;34.05;24.63;;;11.30;99.90;;;;;;5070887;28;20041;-67
2021/05/15 09:16:51;;;;;;;30.45;22.63;;;11.40;99.90;;;;;;5065373;28;20406;-67
2021/05/15 09:19:27;;;;;;;33.58;23.70;;;11.50;99.90;;;;;;5062132;28;20115;-67
2021/05/15 09:22:00;;;;;;;32.13;24.42;;;11.50;99.90;;;;;;5060971;28;20094;-67
2021/05/15 09:24:38;;;;;;;30.50;23.92;;;11.60;99.90;;;;;;5061463;28;20125;-67
2021/05/15 09:27:09;;;;;;;33.58;24.60;;;11.60;99.90;;;;;;5065174;28;20047;-67
2021/05/15 09:29:44;;;;;;;36.95;26.15;;;11.50;99.90;;;;;;5060095;28;20044;-67
2021/05/15 09:32:11;;;;;;;;;;;11.60;99.90;;;;;;5061602;28;20071;-67
2021/05/15 09:34:57;;;;;;;34.35;24.80;;;11.60;99.90;;;;;;5060898;28;19920;-67
2021/05/15 09:37:27;;;;;;;33.70;25.52;;;11.70;99.90;;;;;;5065223;28;20055;-68
2021/05/15 09:39:53;;;;;;;35.17;25.67;;;11.70;99.90;;;;;;5064146;28;20040;-68
2021/05/15 09:42:19;;;;;;;34.35;26.70;;;11.80;99.90;;;;;;5065218;28;20142;-68
2021/05/15 09:44:45;;;;;;;32.10;25.33;;;11.80;99.90;;;;;;5063436;28;20105;-68
2021/05/15 09:47:10;;;;;;;37.88;25.60;;;11.90;99.90;;;;;;5063087;28;20433;-67
2021/05/15 09:49:36;;;;;;;37.03;27.50;;;12.00;99.90;;;;;;5061006;28;20577;-67
2021/05/15 09:52:07;;;;;;;35.45;26.80;;;12.00;99.90;;;;;;5066319;28;20865;-67
2021/05/15 09:54:35;;;;;;;36.65;31.75;;;12.10;99.90;;;;;;5057332;28;20033;-67
2021/05/15 09:57:02;;;;;;;42.72;27.35;;;12.10;99.90;;;;;;5061149;28;20481;-67
2021/05/15 09:59:35;;;;;;;35.42;27.55;;;12.20;99.80;;;;;;5059759;28;20065;-68
2021/05/15 10:02:03;;;;;;;40.75;27.48;;;12.20;99.20;;;;;;5064139;28;20178;-68
2021/05/15 10:04:29;;;;;;;39.83;28.42;;;12.20;99.20;;;;;;5062143;28;20068;-68
2021/05/15 10:06:58;;;;;;;40.05;25.35;;;12.10;99.30;;;;;;5060053;28;20179;-68
2021/05/15 10:09:29;;;;;;;37.83;28.27;;;12.10;99.40;;;;;;5062277;28;20040;-66
2021/05/15 10:11:58;;;;;;;39.08;27.52;;;12.10;99.40;;;;;;5062359;28;20044;-67
2021/05/15 10:14:24;;;;;;;38.58;28.70;;;12.20;99.60;;;;;;5061673;28;20040;-68
2021/05/15 10:16:50;;;;;;;36.33;28.02;;;12.10;99.80;;;;;;5061485;28;20045;-68
2021/05/15 10:19:16;;;;;;;35.90;27.73;;;12.20;99.90;;;;;;5059792;28;20047;-68
2021/05/15 10:21:43;;;;;;;38.60;30.25;;;12.20;99.70;;;;;;5060171;28;20386;-67
2021/05/15 10:24:20;;;;;;;37.47;29.40;;;12.30;99.60;;;;;;5057676;28;20045;-67
2021/05/15 10:27:01;;;;;;;35.83;28.33;;;12.40;99.40;;;;;;5053636;28;20053;-67
2021/05/15 10:29:45;;;;;;;36.00;28.05;;;12.50;99.40;;;;;;5058167;28;20103;-69
2021/05/15 10:32:14;;;;;;;34.13;27.67;;;12.50;99.10;;;;;;5060143;28;20415;-68
2021/05/15 10:34:43;;;;;;;39.92;28.65;;;12.50;99.10;;;;;;5061733;28;20098;-67
2021/05/15 10:37:20;;;;;;;38.17;27.80;;;12.60;99.00;;;;;;5065123;28;20043;-67
2021/05/15 10:39:48;;;;;;;36.35;28.38;;;12.70;98.90;;;;;;5066631;28;20045;-67
2021/05/15 10:42:25;;;;;;;34.00;28.17;;;12.90;98.70;;;;;;5063081;28;20037;-67
2021/05/15 10:44:51;;;;;;;35.40;28.20;;;13.10;98.10;;;;;;5067928;28;20498;-67
2021/05/15 10:47:16;;;;;;;34.13;28.60;;;13.30;98.50;;;;;;5067304;28;20041;-67
2021/05/15 10:49:45;;;;;;;34.33;28.08;;;13.30;98.10;;;;;;5065659;28;20040;-67
2021/05/15 10:52:19;;;;;;;36.72;28.20;;;13.30;98.00;;;;;;5065526;28;20140;-67
2021/05/15 10:54:51;;;;;;;34.72;27.48;;;13.40;97.70;;;;;;5067169;28;20494;-67
2021/05/15 10:57:24;;;;;;;35.13;29.42;;;13.30;97.90;;;;;;5065663;28;20495;-67
2021/05/15 11:00:02;;;;;;;67.22;31.83;;;13.20;98.00;;;;;;5064033;28;20045;-69
2021/05/15 11:02:39;;;;;;;53.45;33.03;;;13.20;98.20;;;;;;5064101;28;20043;-68
2021/05/15 11:05:13;;;;;;;35.78;28.08;;;13.20;98.60;;;;;;5064183;28;20086;-68
2021/05/15 11:07:40;;;;;;;32.55;28.17;;;13.20;97.70;;;;;;5063463;28;20043;-69
2021/05/15 11:10:10;;;;;;;35.95;29.05;;;13.20;97.40;;;;;;5062523;28;20449;-68
2021/05/15 11:12:47;;;;;;;37.90;27.65;;;13.10;97.80;;;;;;5061668;28;20121;-68
2021/05/15 11:15:16;;;;;;;34.38;27.83;;;13.00;98.00;;;;;;5062079;28;20078;-69
2021/05/15 11:17:42;;;;;;;34.05;26.88;;;13.00;98.40;;;;;;5065463;28;20048;-68
2021/05/15 11:20:08;;;;;;;29.60;26.38;;;13.10;98.30;;;;;;5063850;28;20131;-67
2021/05/15 11:22:42;;;;;;;28.83;24.40;;;13.30;97.70;;;;;;5069333;28;20124;-67
2021/05/15 11:25:14;;;;;;;40.20;26.00;;;13.40;96.80;;;;;;5059642;28;20056;-67
2021/05/15 11:27:58;;;;;;;27.95;23.38;;;13.60;96.90;;;;;;5059489;28;20068;-70
2021/05/15 11:30:30;;;;;;;30.63;26.65;;;13.90;95.90;;;;;;5058628;28;20036;-72
2021/05/15 11:33:04;;;;;;;29.13;25.33;;;14.30;95.50;;;;;;5054811;28;20071;-69
2021/05/15 11:35:40;;;;;;;29.38;25.10;;;14.60;96.10;;;;;;5059018;28;20036;-69
2021/05/15 11:38:11;;;;;;;29.35;24.88;;;14.90;94.40;;;;;;5061387;28;20131;-69
2021/05/15 11:40:47;;;;;;;31.23;25.50;;;15.00;93.50;;;;;;5059588;28;20406;-69
2021/05/15 11:43:36;;;;;;;32.50;26.00;;;15.00;94.40;;;;;;5059509;28;20036;-69
2021/05/15 11:46:07;;;;;;;28.05;25.15;;;15.00;94.40;;;;;;5055521;28;20043;-69
2021/05/15 11:48:35;;;;;;;30.58;26.85;;;15.00;93.70;;;;;;5058758;28;20036;-70
2021/05/15 11:51:06;;;;;;;28.88;25.85;;;15.00;94.20;;;;;;5058863;28;20036;-70
2021/05/15 11:53:34;;;;;;;28.35;24.33;;;15.00;93.30;;;;;;5057893;28;20041;-70
2021/05/15 11:56:00;;;;;;;27.25;24.13;;;15.00;92.10;;;;;;5061075;28;20111;-69
2021/05/15 11:58:26;;;;;;;30.13;25.45;;;15.10;92.50;;;;;;5063466;28;20119;-70
2021/05/15 12:00:52;;;;;;;26.98;24.08;;;15.30;92.00;;;;;;5066004;28;20487;-70
2021/05/15 12:03:22;;;;;;;27.35;23.33;;;15.50;92.10;;;;;;5061050;28;20714;-69
2021/05/15 12:05:49;;;;;;;26.40;23.58;;;15.60;91.50;;;;;;5061149;28;20037;-69
2021/05/15 12:08:16;;;;;;;27.85;24.17;;;15.60;91.40;;;;;;5064616;28;20585;-69
2021/05/15 12:10:43;;;;;;;35.15;25.40;;;15.40;91.50;;;;;;5066707;28;20548;-70
2021/05/15 12:13:11;;;;;;;28.05;22.27;;;15.30;92.00;;;;;;5063244;28;20106;-70
2021/05/15 12:15:39;;;;;;;25.58;20.27;;;15.40;91.50;;;;;;5066938;28;20398;-69
2021/05/15 12:18:06;;;;;;;23.35;20.17;;;15.40;91.00;;;;;;5064135;28;20044;-70
2021/05/15 12:20:49;;;;;;;23.73;18.60;;;15.50;90.30;;;;;;5064472;28;20068;-70
2021/05/15 12:23:16;;;;;;;20.17;17.42;;;15.90;91.30;;;;;;5064548;28;20033;-69
2021/05/15 12:25:44;;;;;;;18.65;16.30;;;16.40;90.20;;;;;;5064765;28;20071;-70
2021/05/15 12:28:30;;;;;;;23.95;18.30;;;16.50;89.20;;;;;;5061670;28;20094;-70
2021/05/15 12:30:58;;;;;;;25.48;19.08;;;16.50;88.50;;;;;;5068181;28;20040;-70
2021/05/15 12:33:25;;;;;;;20.52;16.33;;;16.50;88.70;;;;;;5064801;28;20044;-70
2021/05/15 12:36:07;;;;;;;18.50;16.58;;;16.40;86.70;;;;;;5061657;28;20124;-70
2021/05/15 12:38:50;;;;;;;19.20;17.10;;;16.20;86.90;;;;;;5060454;28;20097;-70
2021/05/15 12:41:17;;;;;;;20.92;18.80;;;16.10;87.30;;;;;;5058592;28;20036;-70